Pagina principală
METAR-TAF:

METAR-TAF

Aeroporturi :

Zagreb, Croația

Latitudine: 45-44N, longitudine: 016-04E, elevație: 106 m

Observații meteo curente

Raportul a fost făcut în urmă cu 24 de minute, la 09:30 UTC
Vânt 8 kt de la Est/Nord-est, variabil între Nord și Est/Sud-est
Temperatură 31°C
Umiditate 43%
Presiune 1017 hPa
Vizibilitate de 10 km sau mai mult
nu există nori sub 1.500 m și nici cumulonimbus

METAR: LDZA 170930Z 06008KT 350V110 CAVOK 31/17 Q1017 NOSIG

Ora: 11:54 (09:54 UTC)

Prognoză

Raportul a fost făcut în urmă cu 4 ore și 29 de minute, la 05:25 UTC
Prognoză valabilă de la 17 ora 06 UTC la 18 ora 06 UTC
Vânt 7 kt de la Nord-est
Vizibilitate de 10 km sau mai mult
nu există nori sub 1.500 m și nici cumulonimbus
Probabilitate 30% :
Temporar
de la 17 ora 17 UTC la 18 ora 00 UTC
Vânt 15 kt de la Nord-est

TAF: LDZA 170525Z 1706/1806 04007KT CAVOK TX35/1712Z TN21/1803Z PROB30 TEMPO 1717/1800 04015KT

Observații și prognoze meteo pentru peste 4.000 de aeroporturi (rapoarte METAR și TAF).

Stațiile disponibile sunt reprezentate pe hartă prin puncte galbene și roșii.

Țineți indicatorul mouse-ului pe punctul dorit pentru a vedea denumirea stației.

Apoi, faceți clic pentru a vedea observațiile și prognozele meteorologice.

Pentru a schimba harta: Pentru mărire, faceți clic pe butoanele verzi cu cruce neagră; pentru micșorare, pe butonul verde cu o liniuță; pentru hărți învecinate, pe săgețile verzi.


METAR-TAF: